Terminal Aerodrome Forecast
Issued by NWS

Home | Current Version | Previous Version | Text Only | Print | Product List | Glossary Off
Versions: 1 2 3 4 5 6 7 8 9 10 11 12 13 14 15 16 17 18

000
FTUS43 KABR 201120
TAFMBG
TAF
KMBG 201120Z 2012/2112 34010KT 3SM -SN OVC040
     FM201300 33010KT P6SM VCSH OVC050
     FM201600 32010KT P6SM OVC050
     FM210000 27008KT P6SM SCT150
     FM210800 22006KT P6SM SKC=

USA.gov is the U.S. government's official web portal to all federal, state and local government web resources and services.